createdAt,value
2023-04-22T00:00:57.250Z,60.32
2023-04-22T00:03:25.488Z,59.62
2023-04-22T00:05:54.616Z,60.01
2023-04-22T00:08:22.868Z,60.25
2023-04-22T00:10:52.494Z,60.18
2023-04-22T00:13:20.601Z,59.69
2023-04-22T00:15:48.843Z,59.68
2023-04-22T00:18:17.002Z,60.16
2023-04-22T00:20:45.257Z,60.21
2023-04-22T00:23:14.277Z,60.69
2023-04-22T00:25:42.422Z,60.89
2023-04-22T00:28:11.922Z,60.67
2023-04-22T00:30:41.262Z,60.42
2023-04-22T00:33:09.431Z,60.83
2023-04-22T00:35:37.609Z,60.87
2023-04-22T00:38:05.777Z,61.02
2023-04-22T00:40:33.940Z,60.38
2023-04-22T00:43:03.376Z,60.49
2023-04-22T00:45:33.055Z,60.47
2023-04-22T00:48:01.920Z,60.36
2023-04-22T00:50:30.613Z,60.54
2023-04-22T00:52:58.773Z,59.99
2023-04-22T00:55:28.543Z,60.06
2023-04-22T00:58:01.900Z,59.94
2023-04-22T01:00:30.348Z,60.07
2023-04-22T01:03:00.236Z,59.62
2023-04-22T01:05:31.896Z,59.46
2023-04-22T01:08:00.469Z,59.83
2023-04-22T01:10:29.051Z,59.92
2023-04-22T01:12:57.130Z,60.25
2023-04-22T01:15:25.384Z,60.20
2023-04-22T01:17:55.715Z,60.10
2023-04-22T01:20:29.510Z,60.31
2023-04-22T01:22:58.752Z,60.69
2023-04-22T01:25:28.552Z,60.77
2023-04-22T01:27:57.695Z,59.66
2023-04-22T01:30:25.912Z,59.69
2023-04-22T01:32:54.464Z,59.61
2023-04-22T01:35:22.627Z,59.71
2023-04-22T01:37:53.310Z,59.33
2023-04-22T01:40:23.840Z,59.47
2023-04-22T01:42:53.464Z,59.74
2023-04-22T01:45:21.605Z,59.23
2023-04-22T01:47:49.789Z,58.88
2023-04-22T01:50:18.166Z,59.13
2023-04-22T01:52:46.351Z,59.69
2023-04-22T01:55:14.739Z,59.95
2023-04-22T01:57:43.278Z,60.00
2023-04-22T02:00:14.526Z,60.28
2023-04-22T02:02:42.848Z,60.02
2023-04-22T02:05:11.664Z,59.94
2023-04-22T02:07:39.875Z,59.50
2023-04-22T02:10:09.728Z,59.58
2023-04-22T02:12:37.868Z,59.93
2023-04-22T02:15:07.664Z,59.65
2023-04-22T02:17:37.748Z,59.65
2023-04-22T02:20:07.766Z,59.77
2023-04-22T02:22:36.700Z,60.03
2023-04-22T02:25:06.640Z,60.45
2023-04-22T02:27:34.896Z,60.89
2023-04-22T02:30:03.895Z,61.02
2023-04-22T02:32:32.207Z,61.41
2023-04-22T02:35:02.077Z,62.02
2023-04-22T02:37:30.269Z,61.76
2023-04-22T02:39:58.385Z,61.83
2023-04-22T02:42:26.537Z,61.88
2023-04-22T02:44:54.658Z,61.77
2023-04-22T02:47:23.421Z,61.98
2023-04-22T02:49:51.751Z,62.44
2023-04-22T02:52:21.268Z,62.33
2023-04-22T02:54:49.423Z,62.15
2023-04-22T02:57:17.522Z,61.83
2023-04-22T02:59:46.529Z,62.32
2023-04-22T03:02:14.713Z,62.11
2023-04-22T03:04:42.903Z,62.07
2023-04-22T03:07:11.216Z,62.27
2023-04-22T03:09:41.101Z,62.13
2023-04-22T03:12:10.505Z,61.88
2023-04-22T03:14:41.326Z,62.15
2023-04-22T03:17:09.462Z,62.41
2023-04-22T03:19:37.810Z,62.84
2023-04-22T03:22:06.106Z,63.05
2023-04-22T03:24:34.255Z,63.35
2023-04-22T03:27:03.943Z,63.59
2023-04-22T03:29:32.080Z,63.89
2023-04-22T03:32:00.300Z,63.57
2023-04-22T03:34:28.477Z,63.80
2023-04-22T03:36:56.847Z,64.00
2023-04-22T03:39:24.965Z,63.42
2023-04-22T03:41:53.095Z,63.50
2023-04-22T03:44:22.531Z,63.68
2023-04-22T03:46:50.636Z,63.63
2023-04-22T03:49:19.110Z,63.26
2023-04-22T03:51:47.573Z,63.17
2023-04-22T03:54:15.666Z,62.99
2023-04-22T03:56:43.770Z,63.14
2023-04-22T03:59:11.870Z,63.25
2023-04-22T04:01:41.384Z,62.82
2023-04-22T04:04:09.745Z,62.33
2023-04-22T04:06:38.058Z,62.82
2023-04-22T04:09:06.648Z,62.98
2023-04-22T04:11:34.979Z,62.30
2023-04-22T04:14:03.455Z,62.75
2023-04-22T04:16:31.767Z,63.01
2023-04-22T04:19:01.386Z,63.26
2023-04-22T04:21:29.489Z,63.17
2023-04-22T04:23:57.565Z,63.13
2023-04-22T04:26:27.464Z,62.35
2023-04-22T04:28:56.504Z,62.66
2023-04-22T04:31:25.574Z,62.86
2023-04-22T04:33:53.956Z,62.65
2023-04-22T04:36:25.925Z,62.54
2023-04-22T04:38:55.781Z,63.00
2023-04-22T04:41:26.861Z,63.10
2023-04-22T04:43:55.031Z,62.63
2023-04-22T04:46:23.522Z,62.03
2023-04-22T04:48:53.915Z,61.98
2023-04-22T04:51:23.396Z,61.88
2023-04-22T04:53:51.550Z,61.62
2023-04-22T04:56:19.774Z,60.58
2023-04-22T04:58:47.905Z,60.80
2023-04-22T05:01:16.094Z,60.09
2023-04-22T05:03:44.391Z,60.21
2023-04-22T05:06:12.633Z,60.43
2023-04-22T05:08:42.110Z,59.57
2023-04-22T05:11:10.345Z,58.70
2023-04-22T05:13:38.643Z,58.05
2023-04-22T05:16:07.828Z,57.06
2023-04-22T05:18:36.239Z,56.86
2023-04-22T05:21:04.760Z,56.08
2023-04-22T05:23:32.852Z,55.90
2023-04-22T05:26:02.603Z,55.61
2023-04-22T05:28:30.730Z,54.17
2023-04-22T05:30:59.094Z,53.79
2023-04-22T05:33:27.209Z,53.44
2023-04-22T05:35:55.371Z,52.96
2023-04-22T05:38:25.918Z,52.88
2023-04-22T05:40:54.033Z,52.56
2023-04-22T05:43:23.494Z,52.08
2023-04-22T05:45:51.658Z,51.72
2023-04-22T05:48:19.810Z,51.75
2023-04-22T05:50:47.918Z,50.78
2023-04-22T05:53:16.122Z,51.31
2023-04-22T05:55:44.267Z,51.01
2023-04-22T05:58:12.402Z,50.90
2023-04-22T06:00:41.879Z,50.58
2023-04-22T06:03:10.220Z,50.76
2023-04-22T06:05:38.653Z,50.69
2023-04-22T06:08:06.917Z,50.44
2023-04-22T06:10:35.120Z,50.55
2023-04-22T06:13:03.540Z,50.78
2023-04-22T06:15:31.782Z,51.06
2023-04-22T06:18:01.352Z,50.90
2023-04-22T06:20:29.545Z,51.50
2023-04-22T06:22:57.681Z,50.95
2023-04-22T06:25:25.944Z,50.73
2023-04-22T06:27:54.208Z,50.41
2023-04-22T06:30:22.300Z,49.97
2023-04-22T06:32:50.446Z,50.13
2023-04-22T06:35:21.106Z,50.72
2023-04-22T06:37:49.541Z,50.55
2023-04-22T06:40:17.765Z,50.88
2023-04-22T06:42:45.925Z,50.95
2023-04-22T06:45:14.157Z,51.09
2023-04-22T06:47:42.446Z,51.10
2023-04-22T06:50:11.892Z,51.21
2023-04-22T06:52:41.449Z,50.36
2023-04-22T06:55:10.715Z,50.15
2023-04-22T06:57:38.931Z,49.63
2023-04-22T07:00:09.457Z,49.77
2023-04-22T07:02:37.748Z,49.91
2023-04-22T07:05:06.532Z,50.29
2023-04-22T07:07:34.711Z,50.33
2023-04-22T07:10:04.680Z,50.41
2023-04-22T07:12:32.829Z,50.41
2023-04-22T07:15:00.968Z,50.30
2023-04-22T07:17:29.072Z,49.74
2023-04-22T07:19:57.162Z,49.88
2023-04-22T07:22:25.305Z,50.19
2023-04-22T07:24:53.450Z,50.00
2023-04-22T07:27:23.000Z,49.24
2023-04-22T07:29:51.175Z,48.34
2023-04-22T07:32:19.316Z,48.23
2023-04-22T07:34:47.464Z,48.04
2023-04-22T07:37:15.610Z,47.93
2023-04-22T07:39:43.728Z,48.18
2023-04-22T07:42:12.734Z,47.98
2023-04-22T07:44:42.290Z,47.72
2023-04-22T07:47:10.734Z,47.12
2023-04-22T07:49:39.037Z,47.08
2023-04-22T07:52:07.311Z,46.93
2023-04-22T07:54:35.443Z,46.47
2023-04-22T07:57:03.648Z,46.13
2023-04-22T07:59:31.810Z,45.20
2023-04-22T08:02:01.307Z,45.31
2023-04-22T08:04:29.750Z,45.47
2023-04-22T08:06:58.006Z,44.80
2023-04-22T08:09:26.159Z,45.08
2023-04-22T08:11:54.589Z,44.94
2023-04-22T08:14:22.688Z,44.71
2023-04-22T08:16:52.845Z,44.77
2023-04-22T08:19:23.888Z,43.85
2023-04-22T08:21:51.967Z,43.93
2023-04-22T08:24:20.289Z,43.68
2023-04-22T08:26:48.519Z,43.88
2023-04-22T08:29:16.885Z,43.80
2023-04-22T08:31:45.287Z,43.66
2023-04-22T08:34:13.445Z,43.02
2023-04-22T08:36:43.261Z,42.46
2023-04-22T08:39:12.473Z,42.01
2023-04-22T08:41:41.197Z,42.20
2023-04-22T08:44:11.267Z,41.79
2023-04-22T08:46:41.701Z,41.89
2023-04-22T08:49:10.420Z,40.74
2023-04-22T08:51:39.403Z,40.72
2023-04-22T08:54:09.622Z,40.63
2023-04-22T08:56:42.832Z,40.71
2023-04-22T08:59:12.131Z,40.16
2023-04-22T09:01:42.254Z,40.32
2023-04-22T09:04:12.093Z,40.24
2023-04-22T09:06:41.352Z,40.85
2023-04-22T09:09:10.884Z,40.86
2023-04-22T09:11:39.446Z,40.31
2023-04-22T09:14:07.832Z,40.26
2023-04-22T09:16:43.313Z,40.10
2023-04-22T09:19:13.932Z,40.29
2023-04-22T09:21:42.828Z,40.19
2023-04-22T09:24:13.447Z,40.67
2023-04-22T09:26:43.305Z,39.88
2023-04-22T09:29:16.509Z,39.15
2023-04-22T09:31:50.573Z,39.55
2023-04-22T09:34:18.698Z,39.64
2023-04-22T09:36:47.091Z,40.69
2023-04-22T09:43:20.743Z,40.20
2023-04-22T09:45:48.939Z,40.23
2023-04-22T09:48:20.653Z,40.19
2023-04-22T09:50:52.318Z,40.52
2023-04-22T09:53:22.857Z,40.39
2023-04-22T09:55:55.634Z,40.61
2023-04-22T09:58:27.487Z,40.81
2023-04-22T10:00:57.752Z,40.24
2023-04-22T10:03:25.998Z,39.83
2023-04-22T10:05:54.122Z,39.93
2023-04-22T10:08:22.371Z,40.22
2023-04-22T10:10:50.979Z,39.81
2023-04-22T10:13:19.382Z,39.90
2023-04-22T10:15:53.685Z,39.70
2023-04-22T10:18:25.464Z,39.60
2023-04-22T10:20:57.412Z,39.93
2023-04-22T10:23:26.710Z,38.84
2023-04-22T10:25:57.502Z,38.36
2023-04-22T10:28:30.729Z,38.46
2023-04-22T10:31:00.574Z,38.17
2023-04-22T10:33:42.351Z,36.96
2023-04-22T10:36:17.050Z,37.06
2023-04-22T10:39:22.090Z,36.20
2023-04-22T10:41:56.261Z,36.29
2023-04-22T10:44:30.065Z,37.40
2023-04-22T10:47:01.812Z,36.75
2023-04-22T10:49:34.740Z,36.44
2023-04-22T10:52:04.937Z,35.82
2023-04-22T10:55:00.179Z,35.00
2023-04-22T10:57:40.187Z,35.50
2023-04-22T11:00:33.156Z,35.35
2023-04-22T11:03:17.920Z,36.39
2023-04-22T11:05:46.733Z,35.57
2023-04-22T11:08:21.655Z,36.25
2023-04-22T11:10:51.988Z,36.31
2023-04-22T11:13:21.632Z,35.64
2023-04-22T11:15:53.998Z,35.21
2023-04-22T11:18:27.060Z,35.82
2023-04-22T11:20:55.513Z,35.92
2023-04-22T11:23:28.146Z,36.73
2023-04-22T11:26:01.461Z,36.43
2023-04-22T11:28:30.543Z,36.19
2023-04-22T11:31:10.839Z,35.97
2023-04-22T11:33:41.849Z,36.07
2023-04-22T11:36:12.569Z,36.32
2023-04-22T11:38:40.716Z,35.90
2023-04-22T11:41:08.802Z,36.51
2023-04-22T11:43:48.156Z,35.74
2023-04-22T11:46:16.342Z,35.72
2023-04-22T11:48:45.810Z,35.98
2023-04-22T11:51:14.075Z,35.91
2023-04-22T11:53:51.976Z,36.26
2023-04-22T11:56:22.333Z,36.22
2023-04-22T11:58:50.413Z,35.29
2023-04-22T12:01:19.331Z,35.85
2023-04-22T12:03:50.240Z,36.22
2023-04-22T12:06:18.469Z,35.75
2023-04-22T12:08:47.452Z,35.53
2023-04-22T12:11:15.640Z,36.31
2023-04-22T12:13:46.732Z,36.80
2023-04-22T12:16:18.337Z,36.26
2023-04-22T12:18:52.563Z,35.96
2023-04-22T12:21:24.674Z,36.30
2023-04-22T12:23:58.938Z,35.83
2023-04-22T12:26:28.197Z,36.09
2023-04-22T12:28:58.094Z,36.21
2023-04-22T12:31:27.154Z,36.01
2023-04-22T12:33:57.097Z,35.26
2023-04-22T12:36:26.113Z,35.19
2023-04-22T12:38:54.420Z,35.75
2023-04-22T12:41:23.567Z,35.88
2023-04-22T12:43:52.497Z,35.62
2023-04-22T12:46:20.925Z,35.60
2023-04-22T12:48:49.087Z,35.22
2023-04-22T12:51:18.845Z,35.65
2023-04-22T12:53:46.919Z,35.32
2023-04-22T12:56:15.213Z,34.85
2023-04-22T12:58:43.332Z,34.83
2023-04-22T13:01:11.419Z,34.31
2023-04-22T13:03:39.580Z,34.49
2023-04-22T13:06:08.082Z,34.32
2023-04-22T13:08:37.543Z,34.05
2023-04-22T13:11:05.698Z,34.46
2023-04-22T13:13:33.744Z,34.21
2023-04-22T13:16:02.278Z,33.64
2023-04-22T13:18:30.405Z,33.43
2023-04-22T13:21:00.134Z,33.85
2023-04-22T13:23:28.219Z,34.44
2023-04-22T13:25:57.947Z,33.77
2023-04-22T13:28:26.101Z,33.45
2023-04-22T13:30:54.985Z,33.67
2023-04-22T13:33:24.381Z,33.42
2023-04-22T13:35:52.475Z,33.45
2023-04-22T13:38:20.638Z,32.91
2023-04-22T13:40:48.705Z,33.45
2023-04-22T13:43:18.405Z,33.21
2023-04-22T13:45:48.201Z,33.26
2023-04-22T13:48:16.360Z,33.31
2023-04-22T13:50:44.643Z,33.75
2023-04-22T13:53:14.103Z,33.66
2023-04-22T13:55:43.246Z,33.50
2023-04-22T13:58:11.959Z,33.38
2023-04-22T14:00:41.436Z,33.63
2023-04-22T14:03:09.737Z,33.38
2023-04-22T14:05:37.984Z,34.08
2023-04-22T14:08:06.360Z,33.62
2023-04-22T14:10:34.522Z,33.67
2023-04-22T14:13:02.693Z,33.52
2023-04-22T14:15:30.981Z,33.43
2023-04-22T14:18:00.461Z,33.91
2023-04-22T14:20:28.689Z,34.03
2023-04-22T14:22:56.993Z,33.81
2023-04-22T14:25:25.145Z,33.69
2023-04-22T14:27:53.480Z,34.25
2023-04-22T14:30:21.881Z,34.41
2023-04-22T14:32:50.655Z,34.16
2023-04-22T14:35:20.745Z,34.39
2023-04-22T14:37:49.194Z,34.37
2023-04-22T14:40:17.422Z,34.56
2023-04-22T14:42:45.513Z,34.42
2023-04-22T14:45:14.602Z,34.24
2023-04-22T14:47:42.661Z,34.50
2023-04-22T14:50:11.659Z,34.14
2023-04-22T14:52:41.465Z,34.05
2023-04-22T14:55:21.834Z,34.25
2023-04-22T14:57:56.538Z,34.23
2023-04-22T15:00:25.662Z,33.88
2023-04-22T15:02:55.910Z,34.29
2023-04-22T15:05:24.273Z,34.68
2023-04-22T15:07:53.752Z,34.58
2023-04-22T15:10:22.146Z,34.29
2023-04-22T15:12:50.418Z,34.29
2023-04-22T15:15:18.569Z,34.16
2023-04-22T15:17:47.250Z,34.08
2023-04-22T15:20:15.768Z,34.28
2023-04-22T15:22:45.554Z,34.48
2023-04-22T15:25:17.457Z,34.10
2023-04-22T15:27:46.492Z,34.34
2023-04-22T15:30:15.071Z,35.00
2023-04-22T15:32:43.215Z,35.41
2023-04-22T15:35:11.862Z,35.15
2023-04-22T15:37:40.528Z,34.64
2023-04-22T15:40:10.046Z,34.42
2023-04-22T15:42:39.503Z,34.62
2023-04-22T15:45:09.069Z,34.66
2023-04-22T15:47:37.418Z,34.92
2023-04-22T15:50:08.698Z,35.14
2023-04-22T15:52:38.432Z,35.15
2023-04-22T15:55:07.492Z,35.48
2023-04-22T15:57:35.825Z,35.63
2023-04-22T16:00:12.318Z,35.29
2023-04-22T16:02:43.178Z,35.14
2023-04-22T16:05:13.862Z,35.80
2023-04-22T16:07:41.886Z,36.08
2023-04-22T16:10:11.877Z,36.14
2023-04-22T16:12:39.936Z,36.55
2023-04-22T16:15:12.022Z,36.03
2023-04-22T16:17:40.269Z,36.12
2023-04-22T16:20:10.934Z,36.34
2023-04-22T16:22:39.120Z,36.12
2023-04-22T16:25:09.566Z,36.31
2023-04-22T16:27:37.632Z,36.04
2023-04-22T16:30:07.284Z,36.12
2023-04-22T16:32:37.113Z,36.35
2023-04-22T16:35:06.003Z,36.37
2023-04-22T16:37:35.023Z,36.37
2023-04-22T16:40:04.249Z,36.46
2023-04-22T16:42:32.355Z,36.67
2023-04-22T16:45:01.049Z,36.49
2023-04-22T16:47:29.123Z,36.85
2023-04-22T16:49:58.671Z,37.10
2023-04-22T16:52:26.692Z,37.09
2023-04-22T16:54:54.742Z,37.05
2023-04-22T16:57:22.844Z,37.16
2023-04-22T16:59:51.237Z,36.79
2023-04-22T17:02:19.593Z,37.02
2023-04-22T17:04:47.762Z,36.91
2023-04-22T17:07:17.199Z,37.39
2023-04-22T17:09:45.492Z,37.29
2023-04-22T17:12:13.579Z,37.45
2023-04-22T17:14:41.668Z,37.39
2023-04-22T17:17:09.888Z,37.53
2023-04-22T17:19:38.157Z,37.51
2023-04-22T17:22:06.723Z,37.80
2023-04-22T17:24:36.494Z,37.81
2023-04-22T17:27:04.859Z,38.09
2023-04-22T17:29:32.924Z,38.44
2023-04-22T17:32:00.966Z,38.82
2023-04-22T17:34:29.082Z,38.67
2023-04-22T17:36:57.219Z,38.84
2023-04-22T17:39:25.302Z,39.01
2023-04-22T17:41:54.807Z,39.16
2023-04-22T17:44:22.832Z,39.47
2023-04-22T17:46:51.003Z,39.89
2023-04-22T17:49:19.142Z,39.89
2023-04-22T17:51:47.298Z,40.26
2023-04-22T17:54:15.505Z,40.70
2023-04-22T17:56:43.569Z,40.74
2023-04-22T17:59:13.038Z,40.84
2023-04-22T18:01:41.281Z,41.01
2023-04-22T18:04:09.445Z,41.10
2023-04-22T18:06:37.885Z,41.32
2023-04-22T18:09:06.347Z,41.78
2023-04-22T18:11:34.433Z,42.23
2023-04-22T18:14:02.683Z,42.37
2023-04-22T18:16:32.358Z,42.75
2023-04-22T18:19:02.150Z,43.18
2023-04-22T18:21:31.349Z,43.54
2023-04-22T18:23:59.465Z,43.38
2023-04-22T18:26:27.639Z,43.75
2023-04-22T18:28:55.770Z,43.95
2023-04-22T18:31:23.992Z,44.28
2023-04-22T18:33:53.857Z,44.56
2023-04-22T18:36:22.377Z,45.05
2023-04-22T18:38:50.445Z,45.30
2023-04-22T18:41:18.580Z,45.55
2023-04-22T18:43:50.129Z,45.79
2023-04-22T18:46:18.267Z,45.86
2023-04-22T18:48:46.349Z,45.95
2023-04-22T18:51:15.839Z,46.21
2023-04-22T18:53:44.630Z,46.60
2023-04-22T18:56:13.301Z,46.70
2023-04-22T18:58:41.371Z,46.83
2023-04-22T19:01:09.475Z,47.09
2023-04-22T19:03:38.014Z,47.58
2023-04-22T19:06:06.861Z,47.69
2023-04-22T19:08:36.432Z,48.01
2023-04-22T19:11:04.563Z,48.15
2023-04-22T19:13:32.681Z,48.24
2023-04-22T19:16:00.931Z,48.53
2023-04-22T19:18:29.061Z,48.77
2023-04-22T19:20:57.214Z,48.79
2023-04-22T19:23:25.401Z,49.05
2023-04-22T19:25:54.760Z,49.38
2023-04-22T19:28:22.829Z,49.76
2023-04-22T19:30:51.674Z,50.02
2023-04-22T19:33:19.868Z,50.58
2023-04-22T19:35:48.192Z,50.50
2023-04-22T19:38:19.014Z,50.96
2023-04-22T19:40:47.258Z,51.24
2023-04-22T19:43:18.941Z,51.73
2023-04-22T19:45:47.215Z,51.73
2023-04-22T19:48:16.323Z,51.64
2023-04-22T19:50:45.662Z,51.90
2023-04-22T19:53:14.961Z,51.59
2023-04-22T19:55:45.054Z,51.64
2023-04-22T19:58:14.549Z,51.47
2023-04-22T20:00:46.462Z,51.85
2023-04-22T20:03:16.048Z,51.77
2023-04-22T20:05:45.366Z,51.88
2023-04-22T20:08:15.748Z,51.74
2023-04-22T20:10:47.941Z,51.73
2023-04-22T20:13:16.736Z,52.01
2023-04-22T20:15:46.686Z,51.99
2023-04-22T20:18:15.285Z,52.01
2023-04-22T20:20:45.918Z,52.21
2023-04-22T20:23:16.065Z,51.83
2023-04-22T20:25:45.590Z,51.87
2023-04-22T20:28:14.083Z,51.88
2023-04-22T20:30:42.926Z,51.71
2023-04-22T20:33:15.882Z,51.46
2023-04-22T20:35:46.051Z,51.41
2023-04-22T20:38:15.101Z,50.71
2023-04-22T20:40:46.062Z,50.65
2023-04-22T20:43:14.501Z,50.57
2023-04-22T20:45:43.151Z,50.33
2023-04-22T20:48:12.834Z,50.17
2023-04-22T20:50:40.950Z,49.51
2023-04-22T20:53:09.140Z,48.68
2023-04-22T20:55:37.412Z,47.26
2023-04-22T20:58:05.663Z,47.06
2023-04-22T21:00:34.092Z,46.79
2023-04-22T21:03:04.061Z,46.58
2023-04-22T21:05:40.662Z,45.88
2023-04-22T21:08:22.725Z,46.08
2023-04-22T21:10:52.774Z,46.15
2023-04-22T21:13:21.639Z,46.62
2023-04-22T21:15:58.845Z,47.16
2023-04-22T21:18:29.519Z,47.88
2023-04-22T21:20:59.780Z,47.96
2023-04-22T21:23:28.308Z,48.19
2023-04-22T21:25:58.184Z,48.76
2023-04-22T21:28:27.526Z,49.10
2023-04-22T21:30:56.651Z,49.34
2023-04-22T21:33:25.079Z,49.62
2023-04-22T21:35:53.407Z,49.70
2023-04-22T21:38:22.954Z,49.73
2023-04-22T21:40:51.037Z,50.21
2023-04-22T21:43:19.134Z,50.02
2023-04-22T21:45:47.247Z,49.77
2023-04-22T21:48:15.314Z,50.05
2023-04-22T21:50:43.453Z,50.40
2023-04-22T21:53:12.927Z,50.52
2023-04-22T21:55:42.380Z,50.69
2023-04-22T21:58:10.549Z,50.75
2023-04-22T22:00:38.830Z,51.04
2023-04-22T22:03:07.128Z,51.54
2023-04-22T22:05:35.969Z,51.51
2023-04-22T22:08:04.212Z,51.33
2023-04-22T22:10:32.386Z,51.35
2023-04-22T22:13:01.801Z,50.95
2023-04-22T22:15:30.370Z,51.03
2023-04-22T22:17:58.832Z,51.28
2023-04-22T22:20:27.191Z,51.28
2023-04-22T22:22:55.245Z,51.25
2023-04-22T22:25:23.431Z,51.20
2023-04-22T22:27:51.625Z,51.47
2023-04-22T22:30:22.310Z,51.48
2023-04-22T22:32:50.587Z,52.02
2023-04-22T22:35:18.964Z,52.71
2023-04-22T22:37:47.079Z,53.33
2023-04-22T22:40:15.199Z,53.89
2023-04-22T22:42:43.430Z,54.19
2023-04-22T22:45:12.905Z,54.79
2023-04-22T22:47:42.532Z,55.08
2023-04-22T22:50:11.416Z,55.47
2023-04-22T22:52:39.955Z,56.17
2023-04-22T22:55:09.074Z,56.92
2023-04-22T22:57:37.156Z,58.14
2023-04-22T23:00:07.431Z,60.00
2023-04-22T23:02:35.706Z,60.51
2023-04-22T23:05:07.228Z,61.03
2023-04-22T23:07:35.976Z,61.67
2023-04-22T23:10:04.728Z,62.12
2023-04-22T23:12:34.011Z,62.50
2023-04-22T23:15:02.153Z,62.61
2023-04-22T23:17:30.362Z,62.65
2023-04-22T23:19:58.941Z,61.76
2023-04-22T23:22:29.797Z,62.00
2023-04-22T23:24:58.691Z,62.86
2023-04-22T23:27:28.740Z,62.74
2023-04-22T23:29:57.833Z,61.96
2023-04-22T23:32:28.134Z,62.75
2023-04-22T23:35:00.946Z,63.61
2023-04-22T23:37:31.920Z,64.18
2023-04-22T23:40:00.213Z,63.66
2023-04-22T23:42:28.277Z,62.39
2023-04-22T23:44:56.372Z,62.17
2023-04-22T23:47:24.570Z,62.77
2023-04-22T23:49:52.816Z,62.99
2023-04-22T23:52:20.921Z,62.94
2023-04-22T23:54:52.827Z,62.99
2023-04-22T23:57:21.729Z,62.64
2023-04-22T23:59:50.771Z,62.32
